sensor_id;sensor_type;location;lat;lon;timestamp;P1;durP1;ratioP1;P2;durP2;ratioP2
82992;SDS011;72811;50.844;3.228;2023-10-31T00:01:52;13.98;;;9.30;;
82992;SDS011;72811;50.844;3.228;2023-10-31T00:04:18;17.10;;;10.05;;
82992;SDS011;72811;50.844;3.228;2023-10-31T00:06:43;15.30;;;9.88;;
82992;SDS011;72811;50.844;3.228;2023-10-31T00:09:09;14.27;;;9.00;;
82992;SDS011;72811;50.844;3.228;2023-10-31T00:11:39;15.30;;;10.48;;
82992;SDS011;72811;50.844;3.228;2023-10-31T00:14:06;14.73;;;9.70;;
82992;SDS011;72811;50.844;3.228;2023-10-31T00:16:33;17.42;;;10.00;;
82992;SDS011;72811;50.844;3.228;2023-10-31T00:18:59;16.15;;;9.75;;
82992;SDS011;72811;50.844;3.228;2023-10-31T00:21:25;15.32;;;9.82;;
82992;SDS011;72811;50.844;3.228;2023-10-31T00:23:51;13.43;;;9.05;;
82992;SDS011;72811;50.844;3.228;2023-10-31T00:26:16;13.02;;;8.60;;
82992;SDS011;72811;50.844;3.228;2023-10-31T00:28:43;15.73;;;8.60;;
82992;SDS011;72811;50.844;3.228;2023-10-31T00:31:09;18.75;;;8.88;;
82992;SDS011;72811;50.844;3.228;2023-10-31T00:33:36;14.45;;;8.40;;
82992;SDS011;72811;50.844;3.228;2023-10-31T00:36:03;14.18;;;7.70;;
82992;SDS011;72811;50.844;3.228;2023-10-31T00:38:29;11.32;;;7.30;;
82992;SDS011;72811;50.844;3.228;2023-10-31T00:40:55;9.65;;;6.72;;
82992;SDS011;72811;50.844;3.228;2023-10-31T00:43:21;10.13;;;6.80;;
82992;SDS011;72811;50.844;3.228;2023-10-31T00:45:46;12.38;;;6.97;;
82992;SDS011;72811;50.844;3.228;2023-10-31T00:48:12;9.93;;;6.20;;
82992;SDS011;72811;50.844;3.228;2023-10-31T00:50:38;8.52;;;5.38;;
82992;SDS011;72811;50.844;3.228;2023-10-31T00:53:04;7.95;;;4.70;;
82992;SDS011;72811;50.844;3.228;2023-10-31T00:55:29;7.70;;;4.28;;
82992;SDS011;72811;50.844;3.228;2023-10-31T00:57:55;8.48;;;4.05;;
82992;SDS011;72811;50.844;3.228;2023-10-31T01:00:21;6.47;;;3.50;;
82992;SDS011;72811;50.844;3.228;2023-10-31T01:02:47;7.00;;;3.58;;
82992;SDS011;72811;50.844;3.228;2023-10-31T01:05:12;7.07;;;3.90;;
82992;SDS011;72811;50.844;3.228;2023-10-31T01:07:38;6.22;;;3.83;;
82992;SDS011;72811;50.844;3.228;2023-10-31T01:10:04;7.53;;;3.60;;
82992;SDS011;72811;50.844;3.228;2023-10-31T01:12:30;7.10;;;3.13;;
82992;SDS011;72811;50.844;3.228;2023-10-31T01:14:56;5.03;;;2.92;;
82992;SDS011;72811;50.844;3.228;2023-10-31T01:17:22;4.75;;;3.00;;
82992;SDS011;72811;50.844;3.228;2023-10-31T01:19:48;11.57;;;3.90;;
82992;SDS011;72811;50.844;3.228;2023-10-31T01:22:14;6.03;;;2.67;;
82992;SDS011;72811;50.844;3.228;2023-10-31T01:24:42;5.07;;;2.85;;
82992;SDS011;72811;50.844;3.228;2023-10-31T01:27:08;4.93;;;2.55;;
82992;SDS011;72811;50.844;3.228;2023-10-31T01:29:34;4.32;;;2.40;;
82992;SDS011;72811;50.844;3.228;2023-10-31T01:32:02;4.57;;;2.55;;
82992;SDS011;72811;50.844;3.228;2023-10-31T01:34:28;3.08;;;2.00;;
82992;SDS011;72811;50.844;3.228;2023-10-31T01:36:54;3.15;;;2.17;;
82992;SDS011;72811;50.844;3.228;2023-10-31T01:39:20;3.75;;;2.10;;
82992;SDS011;72811;50.844;3.228;2023-10-31T01:41:45;4.80;;;2.20;;
82992;SDS011;72811;50.844;3.228;2023-10-31T01:44:11;3.80;;;2.20;;
82992;SDS011;72811;50.844;3.228;2023-10-31T01:46:37;6.05;;;1.88;;
82992;SDS011;72811;50.844;3.228;2023-10-31T01:49:03;3.40;;;2.13;;
82992;SDS011;72811;50.844;3.228;2023-10-31T01:51:29;2.83;;;1.90;;
82992;SDS011;72811;50.844;3.228;2023-10-31T01:53:55;3.53;;;2.15;;
82992;SDS011;72811;50.844;3.228;2023-10-31T01:56:22;4.50;;;2.92;;
82992;SDS011;72811;50.844;3.228;2023-10-31T01:58:48;3.47;;;2.10;;
82992;SDS011;72811;50.844;3.228;2023-10-31T02:01:14;4.93;;;2.00;;
82992;SDS011;72811;50.844;3.228;2023-10-31T02:03:41;3.65;;;2.20;;
82992;SDS011;72811;50.844;3.228;2023-10-31T02:06:07;4.82;;;2.53;;
82992;SDS011;72811;50.844;3.228;2023-10-31T02:08:33;8.63;;;2.60;;
82992;SDS011;72811;50.844;3.228;2023-10-31T02:10:59;3.88;;;2.70;;
82992;SDS011;72811;50.844;3.228;2023-10-31T02:13:25;4.18;;;2.95;;
82992;SDS011;72811;50.844;3.228;2023-10-31T02:15:51;5.47;;;2.95;;
82992;SDS011;72811;50.844;3.228;2023-10-31T02:18:17;6.20;;;3.78;;
82992;SDS011;72811;50.844;3.228;2023-10-31T02:20:43;5.60;;;3.70;;
82992;SDS011;72811;50.844;3.228;2023-10-31T02:23:09;5.53;;;3.47;;
82992;SDS011;72811;50.844;3.228;2023-10-31T02:25:35;7.57;;;4.43;;
82992;SDS011;72811;50.844;3.228;2023-10-31T02:28:00;6.97;;;4.32;;
82992;SDS011;72811;50.844;3.228;2023-10-31T02:30:26;7.38;;;3.95;;
82992;SDS011;72811;50.844;3.228;2023-10-31T02:32:52;5.82;;;3.85;;
82992;SDS011;72811;50.844;3.228;2023-10-31T02:35:19;6.25;;;3.78;;
82992;SDS011;72811;50.844;3.228;2023-10-31T02:37:46;6.53;;;3.90;;
82992;SDS011;72811;50.844;3.228;2023-10-31T02:40:12;7.05;;;3.80;;
82992;SDS011;72811;50.844;3.228;2023-10-31T02:42:38;7.40;;;3.90;;
82992;SDS011;72811;50.844;3.228;2023-10-31T02:45:05;6.07;;;4.32;;
82992;SDS011;72811;50.844;3.228;2023-10-31T02:47:31;7.78;;;3.80;;
82992;SDS011;72811;50.844;3.228;2023-10-31T02:50:00;8.68;;;4.43;;
82992;SDS011;72811;50.844;3.228;2023-10-31T02:52:26;6.60;;;4.00;;
82992;SDS011;72811;50.844;3.228;2023-10-31T02:54:52;6.60;;;4.15;;
82992;SDS011;72811;50.844;3.228;2023-10-31T02:57:18;6.55;;;4.22;;
82992;SDS011;72811;50.844;3.228;2023-10-31T02:59:43;6.53;;;4.63;;
82992;SDS011;72811;50.844;3.228;2023-10-31T03:02:09;13.45;;;5.03;;
82992;SDS011;72811;50.844;3.228;2023-10-31T03:04:36;8.45;;;4.72;;
82992;SDS011;72811;50.844;3.228;2023-10-31T03:07:02;6.40;;;4.53;;
82992;SDS011;72811;50.844;3.228;2023-10-31T03:09:28;8.25;;;5.15;;
82992;SDS011;72811;50.844;3.228;2023-10-31T03:11:53;9.50;;;5.28;;
82992;SDS011;72811;50.844;3.228;2023-10-31T03:14:19;7.60;;;5.13;;
82992;SDS011;72811;50.844;3.228;2023-10-31T03:16:45;10.98;;;5.57;;
82992;SDS011;72811;50.844;3.228;2023-10-31T03:19:11;8.35;;;5.55;;
82992;SDS011;72811;50.844;3.228;2023-10-31T03:21:36;7.47;;;5.30;;
82992;SDS011;72811;50.844;3.228;2023-10-31T03:24:03;9.15;;;6.18;;
82992;SDS011;72811;50.844;3.228;2023-10-31T03:26:29;10.85;;;6.05;;
82992;SDS011;72811;50.844;3.228;2023-10-31T03:28:55;9.77;;;6.70;;
82992;SDS011;72811;50.844;3.228;2023-10-31T03:31:22;10.27;;;6.10;;
82992;SDS011;72811;50.844;3.228;2023-10-31T03:33:49;10.48;;;5.95;;
82992;SDS011;72811;50.844;3.228;2023-10-31T03:36:18;8.95;;;6.32;;
82992;SDS011;72811;50.844;3.228;2023-10-31T03:38:44;11.43;;;6.80;;
82992;SDS011;72811;50.844;3.228;2023-10-31T03:41:10;10.57;;;6.68;;
82992;SDS011;72811;50.844;3.228;2023-10-31T03:43:35;10.55;;;7.35;;
82992;SDS011;72811;50.844;3.228;2023-10-31T03:46:01;12.55;;;7.03;;
82992;SDS011;72811;50.844;3.228;2023-10-31T03:48:27;12.35;;;7.60;;
82992;SDS011;72811;50.844;3.228;2023-10-31T03:50:53;12.73;;;8.20;;
82992;SDS011;72811;50.844;3.228;2023-10-31T03:53:19;13.50;;;8.55;;
82992;SDS011;72811;50.844;3.228;2023-10-31T03:55:44;14.90;;;9.13;;
82992;SDS011;72811;50.844;3.228;2023-10-31T03:58:10;15.05;;;9.43;;
82992;SDS011;72811;50.844;3.228;2023-10-31T04:00:36;17.98;;;9.50;;
82992;SDS011;72811;50.844;3.228;2023-10-31T04:03:04;16.77;;;11.20;;
82992;SDS011;72811;50.844;3.228;2023-10-31T04:05:30;21.20;;;11.02;;
82992;SDS011;72811;50.844;3.228;2023-10-31T04:07:55;16.48;;;11.15;;
82992;SDS011;72811;50.844;3.228;2023-10-31T04:10:21;18.23;;;11.60;;
82992;SDS011;72811;50.844;3.228;2023-10-31T04:12:47;16.67;;;11.70;;
82992;SDS011;72811;50.844;3.228;2023-10-31T04:15:13;18.50;;;11.27;;
82992;SDS011;72811;50.844;3.228;2023-10-31T04:17:39;18.08;;;11.60;;
82992;SDS011;72811;50.844;3.228;2023-10-31T04:20:05;18.98;;;12.18;;
82992;SDS011;72811;50.844;3.228;2023-10-31T04:22:31;18.58;;;12.10;;
82992;SDS011;72811;50.844;3.228;2023-10-31T04:24:57;17.65;;;12.00;;
82992;SDS011;72811;50.844;3.228;2023-10-31T04:27:22;15.65;;;11.30;;
82992;SDS011;72811;50.844;3.228;2023-10-31T04:29:48;17.55;;;12.23;;
82992;SDS011;72811;50.844;3.228;2023-10-31T04:32:14;14.07;;;9.73;;
82992;SDS011;72811;50.844;3.228;2023-10-31T04:34:40;15.73;;;9.85;;
82992;SDS011;72811;50.844;3.228;2023-10-31T04:37:06;13.30;;;9.05;;
82992;SDS011;72811;50.844;3.228;2023-10-31T04:39:31;14.95;;;9.18;;
82992;SDS011;72811;50.844;3.228;2023-10-31T04:41:57;10.88;;;8.27;;
82992;SDS011;72811;50.844;3.228;2023-10-31T04:44:23;12.65;;;7.80;;
82992;SDS011;72811;50.844;3.228;2023-10-31T04:46:49;10.30;;;7.28;;
82992;SDS011;72811;50.844;3.228;2023-10-31T04:49:15;11.60;;;7.50;;
82992;SDS011;72811;50.844;3.228;2023-10-31T04:51:41;11.45;;;8.00;;
82992;SDS011;72811;50.844;3.228;2023-10-31T04:54:06;15.40;;;9.18;;
82992;SDS011;72811;50.844;3.228;2023-10-31T04:56:32;12.55;;;8.63;;
82992;SDS011;72811;50.844;3.228;2023-10-31T04:58:59;16.25;;;9.45;;
82992;SDS011;72811;50.844;3.228;2023-10-31T05:01:24;18.92;;;11.13;;
82992;SDS011;72811;50.844;3.228;2023-10-31T05:03:50;17.15;;;11.10;;
82992;SDS011;72811;50.844;3.228;2023-10-31T05:06:20;19.08;;;10.55;;
82992;SDS011;72811;50.844;3.228;2023-10-31T05:11:14;18.63;;;10.60;;
82992;SDS011;72811;50.844;3.228;2023-10-31T05:13:44;20.58;;;12.13;;
82992;SDS011;72811;50.844;3.228;2023-10-31T05:16:10;18.90;;;11.10;;
82992;SDS011;72811;50.844;3.228;2023-10-31T05:18:37;23.15;;;12.23;;
82992;SDS011;72811;50.844;3.228;2023-10-31T05:21:04;18.92;;;12.00;;
82992;SDS011;72811;50.844;3.228;2023-10-31T05:23:30;15.85;;;11.23;;
82992;SDS011;72811;50.844;3.228;2023-10-31T05:25:56;18.38;;;12.43;;
82992;SDS011;72811;50.844;3.228;2023-10-31T05:28:22;16.45;;;11.23;;
82992;SDS011;72811;50.844;3.228;2023-10-31T05:30:48;13.32;;;10.15;;
82992;SDS011;72811;50.844;3.228;2023-10-31T05:33:17;17.38;;;11.02;;
82992;SDS011;72811;50.844;3.228;2023-10-31T05:35:43;16.15;;;10.23;;
82992;SDS011;72811;50.844;3.228;2023-10-31T05:38:09;14.68;;;10.90;;
82992;SDS011;72811;50.844;3.228;2023-10-31T05:40:35;18.48;;;10.73;;
82992;SDS011;72811;50.844;3.228;2023-10-31T05:43:01;17.30;;;11.55;;
82992;SDS011;72811;50.844;3.228;2023-10-31T05:45:28;17.20;;;11.07;;
82992;SDS011;72811;50.844;3.228;2023-10-31T05:47:54;20.42;;;10.75;;
82992;SDS011;72811;50.844;3.228;2023-10-31T05:50:19;15.35;;;10.88;;
82992;SDS011;72811;50.844;3.228;2023-10-31T05:52:45;19.23;;;11.43;;
82992;SDS011;72811;50.844;3.228;2023-10-31T05:55:11;14.60;;;10.68;;
82992;SDS011;72811;50.844;3.228;2023-10-31T05:57:37;16.45;;;11.70;;
82992;SDS011;72811;50.844;3.228;2023-10-31T06:00:03;16.05;;;11.00;;
82992;SDS011;72811;50.844;3.228;2023-10-31T06:02:29;16.88;;;11.75;;
82992;SDS011;72811;50.844;3.228;2023-10-31T06:04:55;14.50;;;10.10;;
82992;SDS011;72811;50.844;3.228;2023-10-31T06:07:21;15.88;;;10.45;;
82992;SDS011;72811;50.844;3.228;2023-10-31T06:09:46;12.73;;;10.18;;
82992;SDS011;72811;50.844;3.228;2023-10-31T06:12:12;14.05;;;9.95;;
82992;SDS011;72811;50.844;3.228;2023-10-31T06:14:38;17.85;;;10.48;;
82992;SDS011;72811;50.844;3.228;2023-10-31T06:17:04;15.18;;;10.52;;
82992;SDS011;72811;50.844;3.228;2023-10-31T06:19:32;17.05;;;11.00;;
82992;SDS011;72811;50.844;3.228;2023-10-31T06:21:59;15.25;;;9.80;;
82992;SDS011;72811;50.844;3.228;2023-10-31T06:24:25;14.93;;;9.25;;
82992;SDS011;72811;50.844;3.228;2023-10-31T06:26:50;16.10;;;10.23;;
82992;SDS011;72811;50.844;3.228;2023-10-31T06:29:17;16.63;;;10.63;;
82992;SDS011;72811;50.844;3.228;2023-10-31T06:31:43;17.38;;;10.65;;
82992;SDS011;72811;50.844;3.228;2023-10-31T06:34:09;19.08;;;11.73;;
82992;SDS011;72811;50.844;3.228;2023-10-31T06:36:34;18.83;;;11.75;;
82992;SDS011;72811;50.844;3.228;2023-10-31T06:39:00;15.98;;;11.45;;
82992;SDS011;72811;50.844;3.228;2023-10-31T06:41:27;14.00;;;10.50;;
82992;SDS011;72811;50.844;3.228;2023-10-31T06:43:53;14.95;;;12.10;;
82992;SDS011;72811;50.844;3.228;2023-10-31T06:46:18;17.42;;;12.30;;
82992;SDS011;72811;50.844;3.228;2023-10-31T06:48:44;17.02;;;12.50;;
82992;SDS011;72811;50.844;3.228;2023-10-31T06:51:10;18.70;;;13.27;;
82992;SDS011;72811;50.844;3.228;2023-10-31T06:53:36;17.85;;;12.10;;
82992;SDS011;72811;50.844;3.228;2023-10-31T06:56:02;18.52;;;11.93;;
82992;SDS011;72811;50.844;3.228;2023-10-31T06:58:28;21.60;;;13.10;;
82992;SDS011;72811;50.844;3.228;2023-10-31T07:00:53;17.08;;;12.00;;
82992;SDS011;72811;50.844;3.228;2023-10-31T07:03:20;17.85;;;12.02;;
82992;SDS011;72811;50.844;3.228;2023-10-31T07:05:46;20.23;;;12.13;;
82992;SDS011;72811;50.844;3.228;2023-10-31T07:08:12;21.63;;;12.65;;
82992;SDS011;72811;50.844;3.228;2023-10-31T07:10:38;17.98;;;13.10;;
82992;SDS011;72811;50.844;3.228;2023-10-31T07:13:04;16.73;;;12.75;;
82992;SDS011;72811;50.844;3.228;2023-10-31T07:15:30;16.02;;;11.73;;
82992;SDS011;72811;50.844;3.228;2023-10-31T07:17:55;19.30;;;12.20;;
82992;SDS011;72811;50.844;3.228;2023-10-31T07:20:21;19.15;;;12.60;;
82992;SDS011;72811;50.844;3.228;2023-10-31T07:22:47;19.42;;;13.00;;
82992;SDS011;72811;50.844;3.228;2023-10-31T07:25:13;19.70;;;12.15;;
82992;SDS011;72811;50.844;3.228;2023-10-31T07:27:38;21.58;;;12.32;;
82992;SDS011;72811;50.844;3.228;2023-10-31T07:30:05;22.27;;;12.68;;
82992;SDS011;72811;50.844;3.228;2023-10-31T07:32:31;20.90;;;13.82;;
82992;SDS011;72811;50.844;3.228;2023-10-31T07:35:00;22.27;;;14.80;;
82992;SDS011;72811;50.844;3.228;2023-10-31T07:37:32;21.15;;;14.63;;
82992;SDS011;72811;50.844;3.228;2023-10-31T07:39:58;20.63;;;12.80;;
82992;SDS011;72811;50.844;3.228;2023-10-31T07:42:24;19.50;;;12.50;;
82992;SDS011;72811;50.844;3.228;2023-10-31T07:44:50;17.48;;;12.48;;
82992;SDS011;72811;50.844;3.228;2023-10-31T07:47:16;17.30;;;13.02;;
82992;SDS011;72811;50.844;3.228;2023-10-31T07:49:42;20.23;;;12.02;;
82992;SDS011;72811;50.844;3.228;2023-10-31T07:52:08;17.23;;;11.52;;
82992;SDS011;72811;50.844;3.228;2023-10-31T07:54:34;19.02;;;11.45;;
82992;SDS011;72811;50.844;3.228;2023-10-31T07:56:59;17.23;;;11.05;;
82992;SDS011;72811;50.844;3.228;2023-10-31T07:59:25;15.55;;;10.35;;
82992;SDS011;72811;50.844;3.228;2023-10-31T08:01:52;15.73;;;10.73;;
82992;SDS011;72811;50.844;3.228;2023-10-31T08:04:18;16.27;;;10.70;;
82992;SDS011;72811;50.844;3.228;2023-10-31T08:06:44;15.02;;;10.35;;
82992;SDS011;72811;50.844;3.228;2023-10-31T08:09:09;15.85;;;9.43;;
82992;SDS011;72811;50.844;3.228;2023-10-31T08:11:35;15.40;;;10.73;;
82992;SDS011;72811;50.844;3.228;2023-10-31T08:14:01;14.88;;;11.10;;
82992;SDS011;72811;50.844;3.228;2023-10-31T08:16:27;13.63;;;9.82;;
82992;SDS011;72811;50.844;3.228;2023-10-31T08:18:53;16.70;;;9.15;;
82992;SDS011;72811;50.844;3.228;2023-10-31T08:21:19;16.05;;;9.77;;
82992;SDS011;72811;50.844;3.228;2023-10-31T08:23:46;15.23;;;9.35;;
82992;SDS011;72811;50.844;3.228;2023-10-31T08:26:12;16.08;;;9.52;;
82992;SDS011;72811;50.844;3.228;2023-10-31T08:28:38;17.77;;;10.68;;
82992;SDS011;72811;50.844;3.228;2023-10-31T08:31:04;20.15;;;9.57;;
82992;SDS011;72811;50.844;3.228;2023-10-31T08:33:30;15.63;;;10.80;;
82992;SDS011;72811;50.844;3.228;2023-10-31T08:35:55;17.80;;;10.10;;
82992;SDS011;72811;50.844;3.228;2023-10-31T08:38:21;15.70;;;9.68;;
82992;SDS011;72811;50.844;3.228;2023-10-31T08:40:47;18.63;;;10.38;;
82992;SDS011;72811;50.844;3.228;2023-10-31T08:43:14;19.05;;;10.15;;
82992;SDS011;72811;50.844;3.228;2023-10-31T08:45:39;18.30;;;9.60;;
82992;SDS011;72811;50.844;3.228;2023-10-31T08:48:05;13.98;;;9.13;;
82992;SDS011;72811;50.844;3.228;2023-10-31T08:50:31;18.75;;;9.80;;
82992;SDS011;72811;50.844;3.228;2023-10-31T08:52:57;18.25;;;11.00;;
82992;SDS011;72811;50.844;3.228;2023-10-31T08:55:22;18.10;;;12.07;;
82992;SDS011;72811;50.844;3.228;2023-10-31T08:57:48;18.63;;;11.27;;
82992;SDS011;72811;50.844;3.228;2023-10-31T09:00:14;13.40;;;10.30;;
82992;SDS011;72811;50.844;3.228;2023-10-31T09:02:40;18.73;;;10.25;;
82992;SDS011;72811;50.844;3.228;2023-10-31T09:05:08;20.75;;;11.60;;
82992;SDS011;72811;50.844;3.228;2023-10-31T09:07:33;18.95;;;12.27;;
82992;SDS011;72811;50.844;3.228;2023-10-31T09:10:02;16.27;;;11.20;;
82992;SDS011;72811;50.844;3.228;2023-10-31T09:12:30;14.43;;;9.63;;
82992;SDS011;72811;50.844;3.228;2023-10-31T09:14:56;20.02;;;10.43;;
82992;SDS011;72811;50.844;3.228;2023-10-31T09:17:24;19.23;;;11.55;;
82992;SDS011;72811;50.844;3.228;2023-10-31T09:19:49;14.88;;;8.93;;
82992;SDS011;72811;50.844;3.228;2023-10-31T09:22:15;13.55;;;9.05;;
82992;SDS011;72811;50.844;3.228;2023-10-31T09:24:41;13.70;;;9.32;;
82992;SDS011;72811;50.844;3.228;2023-10-31T09:27:09;15.32;;;9.60;;
82992;SDS011;72811;50.844;3.228;2023-10-31T09:29:36;18.65;;;9.75;;
82992;SDS011;72811;50.844;3.228;2023-10-31T09:32:02;15.32;;;9.38;;
82992;SDS011;72811;50.844;3.228;2023-10-31T09:34:28;16.25;;;10.05;;
82992;SDS011;72811;50.844;3.228;2023-10-31T09:36:54;15.57;;;8.98;;
82992;SDS011;72811;50.844;3.228;2023-10-31T09:39:20;14.02;;;8.55;;
82992;SDS011;72811;50.844;3.228;2023-10-31T09:41:48;13.38;;;9.05;;
82992;SDS011;72811;50.844;3.228;2023-10-31T09:44:16;16.80;;;9.50;;
82992;SDS011;72811;50.844;3.228;2023-10-31T09:46:46;12.85;;;8.13;;
82992;SDS011;72811;50.844;3.228;2023-10-31T09:49:12;12.88;;;7.45;;
82992;SDS011;72811;50.844;3.228;2023-10-31T09:51:39;13.77;;;8.63;;
82992;SDS011;72811;50.844;3.228;2023-10-31T09:54:05;15.77;;;8.00;;
82992;SDS011;72811;50.844;3.228;2023-10-31T09:56:33;17.38;;;8.35;;
82992;SDS011;72811;50.844;3.228;2023-10-31T09:59:03;13.75;;;8.88;;
82992;SDS011;72811;50.844;3.228;2023-10-31T10:01:30;14.05;;;8.73;;
82992;SDS011;72811;50.844;3.228;2023-10-31T10:03:56;18.27;;;9.07;;
82992;SDS011;72811;50.844;3.228;2023-10-31T10:06:22;19.40;;;9.27;;
82992;SDS011;72811;50.844;3.228;2023-10-31T10:08:49;16.52;;;9.27;;
82992;SDS011;72811;50.844;3.228;2023-10-31T10:11:15;15.68;;;9.18;;
82992;SDS011;72811;50.844;3.228;2023-10-31T10:13:41;18.65;;;9.20;;
82992;SDS011;72811;50.844;3.228;2023-10-31T10:16:07;13.82;;;8.68;;
82992;SDS011;72811;50.844;3.228;2023-10-31T10:18:35;15.48;;;9.32;;
82992;SDS011;72811;50.844;3.228;2023-10-31T10:21:05;18.13;;;8.95;;
82992;SDS011;72811;50.844;3.228;2023-10-31T10:23:34;16.27;;;8.23;;
82992;SDS011;72811;50.844;3.228;2023-10-31T10:26:01;18.33;;;9.00;;
82992;SDS011;72811;50.844;3.228;2023-10-31T10:28:27;16.20;;;9.40;;
82992;SDS011;72811;50.844;3.228;2023-10-31T10:30:58;16.55;;;10.05;;
82992;SDS011;72811;50.844;3.228;2023-10-31T10:33:24;16.30;;;10.10;;
82992;SDS011;72811;50.844;3.228;2023-10-31T10:35:49;15.57;;;9.32;;
82992;SDS011;72811;50.844;3.228;2023-10-31T10:38:16;16.30;;;9.82;;
82992;SDS011;72811;50.844;3.228;2023-10-31T10:40:44;14.85;;;9.55;;
82992;SDS011;72811;50.844;3.228;2023-10-31T10:43:26;15.95;;;10.15;;
82992;SDS011;72811;50.844;3.228;2023-10-31T10:45:58;16.30;;;9.98;;
82992;SDS011;72811;50.844;3.228;2023-10-31T10:48:24;14.07;;;9.50;;
82992;SDS011;72811;50.844;3.228;2023-10-31T10:53:52;11.40;;;7.35;;
82992;SDS011;72811;50.844;3.228;2023-10-31T10:56:26;12.93;;;7.93;;
82992;SDS011;72811;50.844;3.228;2023-10-31T10:59:06;13.25;;;7.90;;
82992;SDS011;72811;50.844;3.228;2023-10-31T11:02:02;11.82;;;7.28;;
82992;SDS011;72811;50.844;3.228;2023-10-31T11:04:42;14.07;;;9.25;;
82992;SDS011;72811;50.844;3.228;2023-10-31T11:07:12;13.80;;;7.97;;
82992;SDS011;72811;50.844;3.228;2023-10-31T11:10:05;12.13;;;8.23;;
82992;SDS011;72811;50.844;3.228;2023-10-31T11:12:45;13.18;;;9.02;;
82992;SDS011;72811;50.844;3.228;2023-10-31T11:15:14;11.13;;;8.25;;
82992;SDS011;72811;50.844;3.228;2023-10-31T11:17:47;13.30;;;8.15;;
82992;SDS011;72811;50.844;3.228;2023-10-31T11:20:15;17.27;;;8.40;;
82992;SDS011;72811;50.844;3.228;2023-10-31T11:22:45;11.50;;;8.82;;
82992;SDS011;72811;50.844;3.228;2023-10-31T11:25:14;13.82;;;8.77;;
82992;SDS011;72811;50.844;3.228;2023-10-31T11:27:43;13.75;;;8.15;;
82992;SDS011;72811;50.844;3.228;2023-10-31T11:30:30;11.93;;;8.77;;
82992;SDS011;72811;50.844;3.228;2023-10-31T11:32:55;14.35;;;8.95;;
82992;SDS011;72811;50.844;3.228;2023-10-31T11:35:24;11.13;;;7.65;;
82992;SDS011;72811;50.844;3.228;2023-10-31T11:38:09;11.68;;;7.47;;
82992;SDS011;72811;50.844;3.228;2023-10-31T11:40:57;14.02;;;7.65;;
82992;SDS011;72811;50.844;3.228;2023-10-31T11:46:17;12.00;;;6.80;;
82992;SDS011;72811;50.844;3.228;2023-10-31T11:48:55;9.43;;;6.50;;
82992;SDS011;72811;50.844;3.228;2023-10-31T11:51:25;10.98;;;6.18;;
82992;SDS011;72811;50.844;3.228;2023-10-31T11:53:52;10.55;;;5.68;;
82992;SDS011;72811;50.844;3.228;2023-10-31T11:56:21;7.47;;;4.35;;
82992;SDS011;72811;50.844;3.228;2023-10-31T11:59:03;6.57;;;4.45;;
82992;SDS011;72811;50.844;3.228;2023-10-31T12:01:29;6.72;;;4.43;;
82992;SDS011;72811;50.844;3.228;2023-10-31T12:03:55;6.47;;;4.15;;
82992;SDS011;72811;50.844;3.228;2023-10-31T12:06:21;7.22;;;4.15;;
82992;SDS011;72811;50.844;3.228;2023-10-31T12:08:47;6.63;;;3.88;;
82992;SDS011;72811;50.844;3.228;2023-10-31T12:11:17;8.35;;;3.70;;
82992;SDS011;72811;50.844;3.228;2023-10-31T12:16:22;7.80;;;4.00;;
82992;SDS011;72811;50.844;3.228;2023-10-31T12:18:54;8.68;;;4.00;;
82992;SDS011;72811;50.844;3.228;2023-10-31T12:21:33;5.50;;;3.42;;
82992;SDS011;72811;50.844;3.228;2023-10-31T12:24:04;7.43;;;3.63;;
82992;SDS011;72811;50.844;3.228;2023-10-31T12:26:34;5.95;;;3.35;;
82992;SDS011;72811;50.844;3.228;2023-10-31T12:29:07;6.32;;;2.78;;
82992;SDS011;72811;50.844;3.228;2023-10-31T12:31:33;7.97;;;3.25;;
82992;SDS011;72811;50.844;3.228;2023-10-31T12:34:06;7.68;;;3.30;;
82992;SDS011;72811;50.844;3.228;2023-10-31T12:36:33;9.85;;;3.30;;
82992;SDS011;72811;50.844;3.228;2023-10-31T12:39:00;5.47;;;2.80;;
82992;SDS011;72811;50.844;3.228;2023-10-31T12:41:26;6.50;;;2.92;;
82992;SDS011;72811;50.844;3.228;2023-10-31T12:43:52;5.93;;;2.67;;
82992;SDS011;72811;50.844;3.228;2023-10-31T12:46:25;6.07;;;2.75;;
82992;SDS011;72811;50.844;3.228;2023-10-31T12:48:55;6.35;;;2.70;;
82992;SDS011;72811;50.844;3.228;2023-10-31T12:51:23;4.97;;;2.53;;
82992;SDS011;72811;50.844;3.228;2023-10-31T12:53:53;6.03;;;2.90;;
82992;SDS011;72811;50.844;3.228;2023-10-31T12:56:37;6.60;;;2.75;;
82992;SDS011;72811;50.844;3.228;2023-10-31T12:59:07;5.95;;;2.75;;
82992;SDS011;72811;50.844;3.228;2023-10-31T13:01:43;5.07;;;2.40;;
82992;SDS011;72811;50.844;3.228;2023-10-31T13:04:09;4.60;;;1.90;;
82992;SDS011;72811;50.844;3.228;2023-10-31T13:06:35;6.57;;;2.40;;
82992;SDS011;72811;50.844;3.228;2023-10-31T13:09:01;3.88;;;1.92;;
82992;SDS011;72811;50.844;3.228;2023-10-31T13:11:30;5.68;;;2.20;;
82992;SDS011;72811;50.844;3.228;2023-10-31T13:13:56;3.63;;;2.00;;
82992;SDS011;72811;50.844;3.228;2023-10-31T13:16:23;3.22;;;2.00;;
82992;SDS011;72811;50.844;3.228;2023-10-31T13:18:52;5.93;;;2.25;;
82992;SDS011;72811;50.844;3.228;2023-10-31T13:21:21;3.75;;;2.38;;
82992;SDS011;72811;50.844;3.228;2023-10-31T13:23:46;6.28;;;2.30;;
82992;SDS011;72811;50.844;3.228;2023-10-31T13:26:13;8.70;;;2.75;;
82992;SDS011;72811;50.844;3.228;2023-10-31T13:28:39;6.28;;;3.03;;
82992;SDS011;72811;50.844;3.228;2023-10-31T13:31:06;7.00;;;2.60;;
82992;SDS011;72811;50.844;3.228;2023-10-31T13:33:35;6.63;;;2.47;;
82992;SDS011;72811;50.844;3.228;2023-10-31T13:36:00;7.60;;;2.58;;
82992;SDS011;72811;50.844;3.228;2023-10-31T13:38:26;6.53;;;2.65;;
82992;SDS011;72811;50.844;3.228;2023-10-31T13:40:52;9.50;;;2.60;;
82992;SDS011;72811;50.844;3.228;2023-10-31T13:43:17;5.82;;;2.58;;
82992;SDS011;72811;50.844;3.228;2023-10-31T13:45:43;7.82;;;2.55;;
82992;SDS011;72811;50.844;3.228;2023-10-31T13:48:09;6.97;;;2.70;;
82992;SDS011;72811;50.844;3.228;2023-10-31T13:50:36;6.75;;;2.33;;
82992;SDS011;72811;50.844;3.228;2023-10-31T13:53:02;7.60;;;2.72;;
82992;SDS011;72811;50.844;3.228;2023-10-31T13:55:29;9.88;;;3.00;;
82992;SDS011;72811;50.844;3.228;2023-10-31T13:57:58;5.68;;;2.60;;
82992;SDS011;72811;50.844;3.228;2023-10-31T14:00:23;6.90;;;3.08;;
82992;SDS011;72811;50.844;3.228;2023-10-31T14:02:49;7.00;;;2.90;;
82992;SDS011;72811;50.844;3.228;2023-10-31T14:05:15;8.57;;;2.78;;
82992;SDS011;72811;50.844;3.228;2023-10-31T14:07:43;6.85;;;3.00;;
82992;SDS011;72811;50.844;3.228;2023-10-31T14:10:09;10.00;;;3.20;;
82992;SDS011;72811;50.844;3.228;2023-10-31T14:12:37;10.60;;;3.92;;
82992;SDS011;72811;50.844;3.228;2023-10-31T14:15:03;8.57;;;3.35;;
82992;SDS011;72811;50.844;3.228;2023-10-31T14:17:29;6.93;;;3.03;;
82992;SDS011;72811;50.844;3.228;2023-10-31T14:19:55;7.65;;;2.88;;
82992;SDS011;72811;50.844;3.228;2023-10-31T14:22:21;9.85;;;2.97;;
82992;SDS011;72811;50.844;3.228;2023-10-31T14:24:47;6.15;;;2.70;;
82992;SDS011;72811;50.844;3.228;2023-10-31T14:27:12;8.85;;;3.10;;
82992;SDS011;72811;50.844;3.228;2023-10-31T14:29:38;8.18;;;2.78;;
82992;SDS011;72811;50.844;3.228;2023-10-31T14:32:07;9.52;;;2.90;;
82992;SDS011;72811;50.844;3.228;2023-10-31T14:34:34;9.63;;;2.83;;
82992;SDS011;72811;50.844;3.228;2023-10-31T14:36:59;11.40;;;3.47;;
82992;SDS011;72811;50.844;3.228;2023-10-31T14:39:25;6.38;;;3.30;;
82992;SDS011;72811;50.844;3.228;2023-10-31T14:41:51;10.23;;;3.58;;
82992;SDS011;72811;50.844;3.228;2023-10-31T14:44:17;14.57;;;3.83;;
82992;SDS011;72811;50.844;3.228;2023-10-31T14:46:43;11.77;;;4.38;;